createdAt,value
2023-05-09T00:00:15.019Z,89.22
2023-05-09T00:02:42.367Z,89.23
2023-05-09T00:05:10.125Z,89.39
2023-05-09T00:07:37.080Z,89.12
2023-05-09T00:10:06.834Z,89.41
2023-05-09T00:12:35.782Z,89.28
2023-05-09T00:15:02.693Z,89.22
2023-05-09T00:17:29.710Z,89.17
2023-05-09T00:19:56.651Z,89.29
2023-05-09T00:22:23.636Z,89.53
2023-05-09T00:24:50.860Z,89.38
2023-05-09T00:27:17.703Z,89.58
2023-05-09T00:29:45.084Z,89.32
2023-05-09T00:32:12.311Z,89.43
2023-05-09T00:34:41.732Z,89.42
2023-05-09T00:37:08.706Z,89.42
2023-05-09T00:39:35.536Z,89.45
2023-05-09T00:42:04.956Z,89.21
2023-05-09T00:44:31.796Z,89.17
2023-05-09T00:46:58.821Z,89.23
2023-05-09T00:49:26.395Z,88.99
2023-05-09T00:51:54.792Z,88.97
2023-05-09T00:54:21.818Z,89.03
2023-05-09T00:56:48.758Z,89.23
2023-05-09T00:59:17.462Z,89.01
2023-05-09T01:01:46.289Z,89.07
2023-05-09T01:04:17.189Z,88.74
2023-05-09T01:07:03.046Z,88.78
2023-05-09T01:09:46.231Z,88.93
2023-05-09T01:12:31.988Z,88.96
2023-05-09T01:15:12.826Z,89.04
2023-05-09T01:17:49.962Z,88.80
2023-05-09T01:20:33.738Z,89.01
2023-05-09T01:23:06.310Z,88.94
2023-05-09T01:25:44.893Z,89.11
2023-05-09T01:28:19.488Z,88.80
2023-05-09T01:30:47.706Z,88.66
2023-05-09T01:33:19.525Z,88.90
2023-05-09T01:35:58.195Z,89.03
2023-05-09T01:38:26.368Z,88.89
2023-05-09T01:40:58.807Z,89.14
2023-05-09T01:43:28.952Z,89.17
2023-05-09T01:45:57.704Z,89.08
2023-05-09T01:48:30.474Z,89.00
2023-05-09T01:50:59.211Z,89.11
2023-05-09T01:53:28.217Z,89.23
2023-05-09T01:55:56.922Z,89.24
2023-05-09T01:58:26.022Z,89.15
2023-05-09T02:00:53.498Z,89.41
2023-05-09T02:03:21.951Z,89.63
2023-05-09T02:05:50.528Z,89.62
2023-05-09T02:08:21.665Z,89.67
2023-05-09T02:10:50.139Z,89.49
2023-05-09T02:13:17.175Z,89.64
2023-05-09T02:15:47.599Z,89.69
2023-05-09T02:18:17.175Z,89.35
2023-05-09T02:20:47.319Z,89.76
2023-05-09T02:23:14.360Z,89.67
2023-05-09T02:25:41.487Z,89.91
2023-05-09T02:28:10.390Z,89.96
2023-05-09T02:30:42.281Z,89.94
2023-05-09T02:33:13.821Z,90.03
2023-05-09T02:35:44.175Z,89.93
2023-05-09T02:38:13.195Z,89.92
2023-05-09T02:40:42.790Z,90.03
2023-05-09T02:43:09.844Z,90.01
2023-05-09T02:45:37.143Z,90.18
2023-05-09T02:48:06.246Z,90.08
2023-05-09T02:50:37.079Z,90.20
2023-05-09T02:53:06.567Z,90.59
2023-05-09T02:55:35.489Z,90.44
2023-05-09T02:58:13.673Z,90.59
2023-05-09T03:00:42.564Z,90.66
2023-05-09T03:03:09.546Z,90.86
2023-05-09T03:05:36.571Z,90.84
2023-05-09T03:08:03.414Z,90.75
2023-05-09T03:10:30.327Z,90.92
2023-05-09T03:12:57.521Z,91.24
2023-05-09T03:15:27.082Z,91.05
2023-05-09T03:17:53.994Z,91.10
2023-05-09T03:20:25.116Z,91.17
2023-05-09T03:22:51.987Z,91.00
2023-05-09T03:25:21.081Z,90.99
2023-05-09T03:27:47.841Z,91.25
2023-05-09T03:30:15.303Z,91.09
2023-05-09T03:32:44.769Z,91.04
2023-05-09T03:35:13.713Z,91.23
2023-05-09T03:37:40.685Z,91.21
2023-05-09T03:40:10.437Z,91.12
2023-05-09T03:42:37.637Z,91.27
2023-05-09T03:45:07.549Z,91.50
2023-05-09T03:47:34.470Z,91.27
2023-05-09T03:50:01.625Z,91.51
2023-05-09T03:52:28.346Z,91.69
2023-05-09T03:54:55.513Z,91.44
2023-05-09T03:57:27.139Z,91.57
2023-05-09T03:59:54.052Z,91.45
2023-05-09T04:02:21.201Z,91.50
2023-05-09T04:04:50.227Z,91.35
2023-05-09T04:07:17.278Z,91.38
2023-05-09T04:09:44.226Z,91.57
2023-05-09T04:12:11.294Z,91.54
2023-05-09T04:14:40.192Z,91.50
2023-05-09T04:17:07.393Z,91.66
2023-05-09T04:19:34.382Z,91.75
2023-05-09T04:22:03.462Z,91.64
2023-05-09T04:24:32.920Z,91.51
2023-05-09T04:27:02.489Z,91.63
2023-05-09T04:29:32.691Z,91.71
2023-05-09T04:32:24.404Z,91.44
2023-05-09T04:34:52.723Z,91.57
2023-05-09T04:37:19.441Z,91.67
2023-05-09T04:39:48.621Z,91.35
2023-05-09T04:42:15.882Z,91.65
2023-05-09T04:44:42.724Z,91.46
2023-05-09T04:47:10.978Z,91.36
2023-05-09T04:49:40.672Z,91.48
2023-05-09T04:52:12.055Z,91.23
2023-05-09T04:54:41.627Z,91.13
2023-05-09T04:57:17.380Z,91.02
2023-05-09T04:59:45.757Z,90.70
2023-05-09T05:02:15.029Z,90.74
2023-05-09T05:04:43.307Z,90.57
2023-05-09T05:07:13.418Z,90.36
2023-05-09T05:09:40.224Z,90.13
2023-05-09T05:12:09.542Z,89.98
2023-05-09T05:14:37.187Z,89.83
2023-05-09T05:17:04.260Z,89.44
2023-05-09T05:19:30.971Z,89.64
2023-05-09T05:22:00.002Z,89.45
2023-05-09T05:24:26.578Z,89.47
2023-05-09T05:26:55.651Z,89.42
2023-05-09T05:29:24.704Z,89.02
2023-05-09T05:31:51.317Z,88.92
2023-05-09T05:34:20.500Z,88.82
2023-05-09T05:36:47.730Z,88.50
2023-05-09T05:39:14.320Z,88.04
2023-05-09T05:41:43.583Z,87.59
2023-05-09T05:44:12.671Z,86.72
2023-05-09T05:46:39.357Z,86.49
2023-05-09T05:49:08.492Z,86.09
2023-05-09T05:51:35.038Z,86.22
2023-05-09T05:54:01.695Z,86.38
2023-05-09T05:56:28.289Z,85.95
2023-05-09T05:58:54.956Z,85.82
2023-05-09T06:01:21.594Z,85.62
2023-05-09T06:03:50.362Z,85.73
2023-05-09T06:06:17.034Z,85.55
2023-05-09T06:08:46.117Z,85.40
2023-05-09T06:11:12.749Z,85.42
2023-05-09T06:13:39.392Z,85.33
2023-05-09T06:16:18.471Z,85.33
2023-05-09T06:18:49.309Z,85.06
2023-05-09T06:21:16.079Z,85.20
2023-05-09T06:23:50.960Z,85.30
2023-05-09T06:26:31.915Z,85.12
2023-05-09T06:28:58.646Z,85.24
2023-05-09T06:31:27.966Z,85.29
2023-05-09T06:33:54.587Z,85.29
2023-05-09T06:36:21.321Z,85.06
2023-05-09T06:38:47.970Z,85.24
2023-05-09T06:41:14.764Z,85.46
2023-05-09T06:43:41.431Z,85.16
2023-05-09T06:46:08.298Z,85.17
2023-05-09T06:48:34.927Z,85.20
2023-05-09T06:51:01.560Z,85.10
2023-05-09T06:53:30.471Z,84.98
2023-05-09T06:55:57.308Z,84.95
2023-05-09T06:58:24.062Z,84.99
2023-05-09T07:00:51.528Z,84.77
2023-05-09T07:03:18.154Z,84.38
2023-05-09T07:05:44.758Z,84.34
2023-05-09T07:08:11.556Z,83.96
2023-05-09T07:10:38.936Z,83.88
2023-05-09T07:13:06.041Z,83.71
2023-05-09T07:15:41.175Z,83.61
2023-05-09T07:18:09.652Z,83.71
2023-05-09T07:20:36.460Z,83.89
2023-05-09T07:23:04.111Z,83.57
2023-05-09T07:25:32.099Z,84.13
2023-05-09T07:27:58.731Z,83.99
2023-05-09T07:30:27.950Z,83.90
2023-05-09T07:32:54.588Z,84.42
2023-05-09T07:35:21.576Z,84.70
2023-05-09T07:37:48.554Z,84.74
2023-05-09T07:40:18.531Z,85.17
2023-05-09T07:42:50.084Z,84.83
2023-05-09T07:45:18.361Z,85.19
2023-05-09T07:47:46.159Z,85.27
2023-05-09T07:50:12.937Z,85.24
2023-05-09T07:52:39.590Z,85.29
2023-05-09T07:55:06.739Z,85.86
2023-05-09T07:57:33.489Z,85.75
2023-05-09T08:00:00.007Z,85.86
2023-05-09T08:02:26.835Z,86.06
2023-05-09T08:04:53.476Z,86.29
2023-05-09T08:07:20.027Z,86.41
2023-05-09T08:09:46.636Z,86.13
2023-05-09T08:12:15.355Z,86.13
2023-05-09T08:14:41.973Z,86.26
2023-05-09T08:17:08.598Z,85.71
2023-05-09T08:19:35.181Z,86.21
2023-05-09T08:22:01.763Z,86.30
2023-05-09T08:24:28.422Z,86.25
2023-05-09T08:26:55.108Z,85.84
2023-05-09T08:29:24.015Z,85.71
2023-05-09T08:31:51.327Z,85.45
2023-05-09T08:34:18.007Z,85.51
2023-05-09T08:36:47.053Z,85.45
2023-05-09T08:39:15.694Z,85.45
2023-05-09T08:41:42.949Z,85.69
2023-05-09T08:44:09.949Z,85.66
2023-05-09T08:46:44.520Z,85.38
2023-05-09T08:49:11.911Z,84.90
2023-05-09T08:51:39.922Z,85.22
2023-05-09T08:54:08.650Z,85.09
2023-05-09T08:56:35.780Z,85.17
2023-05-09T08:59:05.762Z,85.19
2023-05-09T09:01:37.968Z,85.23
2023-05-09T09:04:08.792Z,85.23
2023-05-09T09:06:36.331Z,85.03
2023-05-09T09:09:06.173Z,84.94
2023-05-09T09:11:34.455Z,84.91
2023-05-09T09:14:06.138Z,85.17
2023-05-09T09:16:33.287Z,85.18
2023-05-09T09:19:00.465Z,85.42
2023-05-09T09:21:29.833Z,85.25
2023-05-09T09:23:57.016Z,85.40
2023-05-09T09:26:24.765Z,85.34
2023-05-09T09:28:51.476Z,85.29
2023-05-09T09:31:23.448Z,85.53
2023-05-09T09:33:51.245Z,85.39
2023-05-09T09:36:28.013Z,85.64
2023-05-09T09:39:06.961Z,85.59
2023-05-09T09:41:38.249Z,85.54
2023-05-09T09:44:08.444Z,85.92
2023-05-09T09:46:45.618Z,86.06
2023-05-09T09:49:19.055Z,85.99
2023-05-09T09:51:50.119Z,85.91
2023-05-09T09:54:16.707Z,85.91
2023-05-09T09:56:48.124Z,86.00
2023-05-09T09:59:16.414Z,86.16
2023-05-09T10:01:56.362Z,85.77
2023-05-09T10:04:23.530Z,85.73
2023-05-09T10:06:58.042Z,85.54
2023-05-09T10:09:26.186Z,85.60
2023-05-09T10:11:57.061Z,85.79
2023-05-09T10:14:25.802Z,85.93
2023-05-09T10:16:56.768Z,86.04
2023-05-09T10:19:29.824Z,85.89
2023-05-09T10:22:08.482Z,86.17
2023-05-09T10:24:48.434Z,86.43
2023-05-09T10:27:18.140Z,86.95
2023-05-09T10:29:51.767Z,86.97
2023-05-09T10:32:24.080Z,87.29
2023-05-09T10:34:54.998Z,87.27
2023-05-09T10:37:22.028Z,87.19
2023-05-09T10:39:53.156Z,87.27
2023-05-09T10:42:20.488Z,87.33
2023-05-09T10:44:47.998Z,87.71
2023-05-09T10:47:15.637Z,87.57
2023-05-09T10:49:44.263Z,87.70
2023-05-09T10:52:14.333Z,88.09
2023-05-09T10:54:40.994Z,88.43
2023-05-09T10:57:18.395Z,88.56
2023-05-09T10:59:45.378Z,88.54
2023-05-09T11:02:20.436Z,88.88
2023-05-09T11:04:47.728Z,88.97
2023-05-09T11:07:30.342Z,88.99
2023-05-09T11:10:11.070Z,89.47
2023-05-09T11:12:58.490Z,89.76
2023-05-09T11:15:27.705Z,89.38
2023-05-09T11:18:08.600Z,89.52
2023-05-09T11:20:38.230Z,89.54
2023-05-09T11:23:10.486Z,89.79
2023-05-09T11:25:39.634Z,89.81
2023-05-09T11:28:08.847Z,89.74
2023-05-09T11:30:41.076Z,89.51
2023-05-09T11:33:22.883Z,89.70
2023-05-09T11:36:15.943Z,89.71
2023-05-09T11:38:45.548Z,89.80
2023-05-09T11:41:13.123Z,89.80
2023-05-09T11:43:44.082Z,89.79
2023-05-09T11:46:15.702Z,89.67
2023-05-09T11:48:42.722Z,89.43
2023-05-09T11:51:17.659Z,89.11
2023-05-09T11:53:49.844Z,89.04
2023-05-09T11:56:20.379Z,88.76
2023-05-09T11:58:47.035Z,88.83
2023-05-09T12:01:16.321Z,88.81
2023-05-09T12:03:46.156Z,88.63
2023-05-09T12:06:17.738Z,88.62
2023-05-09T12:08:45.765Z,88.41
2023-05-09T12:11:13.943Z,88.31
2023-05-09T12:13:52.344Z,88.63
2023-05-09T12:16:20.315Z,88.57
2023-05-09T12:18:51.195Z,88.72
2023-05-09T12:21:18.634Z,88.88
2023-05-09T12:23:49.952Z,88.44
2023-05-09T12:26:18.366Z,88.43
2023-05-09T12:28:45.324Z,88.54
2023-05-09T12:31:13.086Z,88.30
2023-05-09T12:33:39.992Z,88.33
2023-05-09T12:36:11.740Z,88.35
2023-05-09T12:38:39.001Z,88.00
2023-05-09T12:41:22.396Z,87.99
2023-05-09T12:43:57.152Z,87.65
2023-05-09T12:46:26.106Z,88.04
2023-05-09T12:48:55.161Z,88.04
2023-05-09T12:51:22.234Z,88.21
2023-05-09T12:53:51.271Z,88.35
2023-05-09T12:56:23.552Z,88.59
2023-05-09T12:58:57.091Z,88.57
2023-05-09T13:01:27.600Z,88.53
2023-05-09T13:04:06.034Z,88.69
2023-05-09T13:06:33.148Z,88.40
2023-05-09T13:09:19.867Z,88.05
2023-05-09T13:11:47.746Z,87.67
2023-05-09T13:14:15.056Z,87.46
2023-05-09T13:16:42.129Z,87.20
2023-05-09T13:19:08.723Z,87.17
2023-05-09T13:21:36.057Z,87.12
2023-05-09T13:24:04.212Z,87.26
2023-05-09T13:26:31.042Z,87.68
2023-05-09T13:28:58.356Z,87.85
2023-05-09T13:31:25.672Z,88.35
2023-05-09T13:33:52.672Z,88.68
2023-05-09T13:36:19.830Z,88.93
2023-05-09T13:38:46.795Z,89.24
2023-05-09T13:41:20.904Z,89.34
2023-05-09T13:43:47.612Z,89.49
2023-05-09T13:46:14.382Z,89.46
2023-05-09T13:48:42.045Z,89.15
2023-05-09T13:51:08.801Z,89.00
2023-05-09T13:53:38.128Z,88.92
2023-05-09T13:56:11.624Z,89.08
2023-05-09T13:58:38.258Z,89.08
2023-05-09T14:01:04.860Z,89.31
2023-05-09T14:03:36.806Z,89.40
2023-05-09T14:06:04.380Z,89.61
2023-05-09T14:08:31.089Z,89.64
2023-05-09T14:10:59.213Z,89.81
2023-05-09T14:13:28.241Z,90.09
2023-05-09T14:15:55.314Z,90.54
2023-05-09T14:18:21.881Z,90.47
2023-05-09T14:20:48.494Z,90.75
2023-05-09T14:23:15.060Z,90.98
2023-05-09T14:25:44.851Z,91.10
2023-05-09T14:28:12.045Z,90.95
2023-05-09T14:30:38.656Z,91.21
2023-05-09T14:33:05.746Z,91.15
2023-05-09T14:35:34.375Z,91.42
2023-05-09T14:38:01.715Z,92.14
2023-05-09T14:40:34.589Z,91.99
2023-05-09T14:43:04.567Z,91.54
2023-05-09T14:45:32.950Z,91.65
2023-05-09T14:48:05.521Z,91.77
2023-05-09T14:50:36.900Z,91.49
2023-05-09T14:53:03.823Z,91.53
2023-05-09T14:55:31.369Z,91.45
2023-05-09T14:58:01.113Z,91.45
2023-05-09T15:00:28.499Z,91.57
2023-05-09T15:02:56.034Z,91.57
2023-05-09T15:05:22.703Z,93.05
2023-05-09T15:07:49.281Z,92.62
2023-05-09T15:10:19.106Z,92.48
2023-05-09T15:12:48.036Z,92.53
2023-05-09T15:15:23.562Z,92.75
2023-05-09T15:17:55.546Z,92.59
2023-05-09T15:20:22.898Z,92.69
2023-05-09T15:22:50.368Z,93.03
2023-05-09T15:25:17.523Z,93.04
2023-05-09T15:27:44.210Z,93.10
2023-05-09T15:30:13.896Z,94.06
2023-05-09T15:32:41.118Z,93.85
2023-05-09T15:35:08.569Z,93.68
2023-05-09T15:37:37.944Z,93.69
2023-05-09T15:40:05.255Z,93.48
2023-05-09T15:42:32.207Z,93.59
2023-05-09T15:44:58.793Z,93.56
2023-05-09T15:47:25.466Z,93.54
2023-05-09T15:49:52.257Z,93.55
2023-05-09T15:52:19.073Z,93.72
2023-05-09T15:54:46.380Z,93.92
2023-05-09T15:57:13.661Z,94.02
2023-05-09T15:59:40.553Z,94.60
2023-05-09T16:02:07.273Z,94.57
2023-05-09T16:04:34.272Z,94.75
2023-05-09T16:07:03.782Z,94.29
2023-05-09T16:09:30.520Z,94.50
2023-05-09T16:11:57.188Z,94.31
2023-05-09T16:14:23.886Z,94.61
2023-05-09T16:16:53.958Z,94.86
2023-05-09T16:19:22.166Z,95.08
2023-05-09T16:21:48.970Z,95.36
2023-05-09T16:24:15.621Z,95.21
2023-05-09T16:26:42.209Z,94.84
2023-05-09T16:29:12.729Z,94.57
2023-05-09T16:31:39.408Z,94.38
2023-05-09T16:34:09.093Z,94.71
2023-05-09T16:36:37.547Z,94.71
2023-05-09T16:39:07.422Z,94.63
2023-05-09T16:41:34.126Z,94.76
2023-05-09T16:44:00.698Z,94.58
2023-05-09T16:46:27.370Z,94.63
2023-05-09T16:48:54.012Z,94.82
2023-05-09T16:51:20.716Z,95.05
2023-05-09T16:53:47.581Z,94.82
2023-05-09T16:56:14.301Z,95.27
2023-05-09T16:58:44.799Z,95.21
2023-05-09T17:01:11.827Z,95.38
2023-05-09T17:03:40.963Z,95.73
2023-05-09T17:06:07.671Z,95.83
2023-05-09T17:08:34.874Z,95.87
2023-05-09T17:11:01.502Z,95.36
2023-05-09T17:13:28.583Z,95.50
2023-05-09T17:15:55.216Z,95.33
2023-05-09T17:18:36.488Z,95.24
2023-05-09T17:21:05.291Z,95.06
2023-05-09T17:23:32.984Z,95.32
2023-05-09T17:25:59.689Z,95.34
2023-05-09T17:28:27.046Z,95.46
2023-05-09T17:30:53.890Z,95.73
2023-05-09T17:33:20.806Z,95.64
2023-05-09T17:35:50.098Z,95.57
2023-05-09T17:38:17.509Z,95.79
2023-05-09T17:40:44.799Z,95.71
2023-05-09T17:43:13.252Z,95.72
2023-05-09T17:45:39.814Z,95.73
2023-05-09T17:48:07.054Z,95.66
2023-05-09T17:50:33.935Z,95.99
2023-05-09T17:53:00.722Z,96.03
2023-05-09T17:55:27.562Z,96.10
2023-05-09T17:57:54.153Z,96.50
2023-05-09T18:00:26.210Z,96.39
2023-05-09T18:02:53.280Z,96.50
2023-05-09T18:05:20.565Z,96.75
2023-05-09T18:07:47.172Z,96.85
2023-05-09T18:10:14.052Z,96.80
2023-05-09T18:12:45.196Z,97.18
2023-05-09T18:15:12.235Z,97.20
2023-05-09T18:17:38.960Z,97.52
2023-05-09T18:20:08.656Z,98.12
2023-05-09T18:22:37.409Z,97.97
2023-05-09T18:25:04.414Z,98.00
2023-05-09T18:27:33.435Z,98.17
2023-05-09T18:30:00.415Z,98.27
2023-05-09T18:32:27.031Z,98.36
2023-05-09T18:34:53.730Z,98.66
2023-05-09T18:37:20.725Z,98.70
2023-05-09T18:39:49.733Z,98.96
2023-05-09T18:42:16.567Z,99.11
2023-05-09T18:44:43.369Z,99.20
2023-05-09T18:47:10.303Z,99.40
2023-05-09T18:49:37.926Z,99.50
2023-05-09T18:52:04.804Z,99.50
2023-05-09T18:54:31.651Z,99.56
2023-05-09T18:56:58.552Z,99.58
2023-05-09T18:59:27.761Z,99.56
2023-05-09T19:01:54.342Z,99.95
2023-05-09T19:04:23.649Z,99.92
2023-05-09T19:06:52.892Z,100.00
2023-05-09T19:09:19.534Z,100.00
2023-05-09T19:11:46.748Z,100.00
2023-05-09T19:14:13.298Z,100.00
2023-05-09T19:16:40.035Z,100.00
2023-05-09T19:19:06.593Z,100.00
2023-05-09T19:21:34.601Z,100.00
2023-05-09T19:24:06.357Z,99.93
2023-05-09T19:26:33.070Z,99.93
2023-05-09T19:29:00.741Z,100.00
2023-05-09T19:31:31.478Z,100.00
2023-05-09T19:34:00.828Z,100.00
2023-05-09T19:36:27.910Z,100.00
2023-05-09T19:38:57.253Z,100.00
2023-05-09T19:41:27.028Z,100.00
2023-05-09T19:43:54.033Z,100.00
2023-05-09T19:46:22.564Z,100.00
2023-05-09T19:48:49.547Z,100.00
2023-05-09T19:51:16.744Z,100.00
2023-05-09T19:53:47.277Z,100.00
2023-05-09T19:56:14.191Z,100.00
2023-05-09T19:58:43.566Z,100.00
2023-05-09T20:01:12.969Z,100.00
2023-05-09T20:03:42.368Z,100.00
2023-05-09T20:06:11.637Z,100.00
2023-05-09T20:08:38.797Z,100.00
2023-05-09T20:11:08.617Z,100.00
2023-05-09T20:13:37.958Z,100.00
2023-05-09T20:16:05.437Z,100.00
2023-05-09T20:18:35.034Z,100.00
2023-05-09T20:21:02.833Z,100.00
2023-05-09T20:23:29.907Z,100.00
2023-05-09T20:25:56.822Z,100.00
2023-05-09T20:28:26.946Z,100.00
2023-05-09T20:30:53.931Z,100.00
2023-05-09T20:33:20.924Z,100.00
2023-05-09T20:35:51.326Z,100.00
2023-05-09T20:38:19.425Z,100.00
2023-05-09T20:40:46.686Z,100.00
2023-05-09T20:43:13.781Z,100.00
2023-05-09T20:45:41.014Z,100.00
2023-05-09T20:48:09.366Z,100.00
2023-05-09T20:50:36.550Z,100.00
2023-05-09T20:53:03.425Z,100.00
2023-05-09T20:55:30.824Z,100.00
2023-05-09T20:58:00.767Z,100.00
2023-05-09T21:00:28.323Z,100.00
2023-05-09T21:02:58.497Z,100.00
2023-05-09T21:05:26.046Z,100.00
2023-05-09T21:07:53.450Z,100.00
2023-05-09T21:10:20.742Z,100.00
2023-05-09T21:12:50.294Z,100.00
2023-05-09T21:15:17.751Z,100.00
2023-05-09T21:17:47.830Z,100.00
2023-05-09T21:20:17.342Z,100.00
2023-05-09T21:22:44.550Z,100.00
2023-05-09T21:25:11.291Z,100.00
2023-05-09T21:27:41.308Z,100.00
2023-05-09T21:30:09.017Z,100.00
2023-05-09T21:32:39.103Z,100.00
2023-05-09T21:35:10.782Z,100.00
2023-05-09T21:37:37.714Z,100.00
2023-05-09T21:40:08.288Z,100.00
2023-05-09T21:42:36.445Z,100.00
2023-05-09T21:45:04.053Z,100.00
2023-05-09T21:47:31.207Z,100.00
2023-05-09T21:49:58.428Z,100.00
2023-05-09T21:52:25.282Z,100.00
2023-05-09T21:54:52.109Z,100.00
2023-05-09T21:57:19.145Z,100.00
2023-05-09T21:59:46.570Z,100.00
2023-05-09T22:02:22.804Z,100.00
2023-05-09T22:04:49.961Z,100.00
2023-05-09T22:07:19.380Z,100.00
2023-05-09T22:09:47.946Z,100.00
2023-05-09T22:12:16.931Z,100.00
2023-05-09T22:14:55.377Z,100.00
2023-05-09T22:17:24.680Z,100.00
2023-05-09T22:19:52.200Z,100.00
2023-05-09T22:22:19.278Z,100.00
2023-05-09T22:24:49.834Z,100.00
2023-05-09T22:27:18.114Z,100.00
2023-05-09T22:29:46.868Z,100.00
2023-05-09T22:32:15.320Z,100.00
2023-05-09T22:34:45.050Z,100.00
2023-05-09T22:37:12.476Z,100.00
2023-05-09T22:39:40.077Z,100.00
2023-05-09T22:42:15.563Z,100.00
2023-05-09T22:44:45.805Z,100.00
2023-05-09T22:47:12.955Z,100.00
2023-05-09T22:49:39.793Z,100.00
2023-05-09T22:52:06.762Z,100.00
2023-05-09T22:54:34.383Z,100.00
2023-05-09T22:57:04.543Z,100.00
2023-05-09T22:59:32.375Z,100.00
2023-05-09T23:02:02.480Z,100.00
2023-05-09T23:04:29.634Z,100.00
2023-05-09T23:06:56.630Z,100.00
2023-05-09T23:09:23.494Z,100.00
2023-05-09T23:11:50.862Z,100.00
2023-05-09T23:14:17.769Z,100.00
2023-05-09T23:16:47.217Z,100.00
2023-05-09T23:19:14.000Z,100.00
2023-05-09T23:21:41.285Z,100.00
2023-05-09T23:24:08.937Z,100.00
2023-05-09T23:26:38.166Z,100.00
2023-05-09T23:29:05.158Z,100.00
2023-05-09T23:31:32.197Z,100.00
2023-05-09T23:33:59.397Z,100.00
2023-05-09T23:36:28.481Z,100.00
2023-05-09T23:38:57.604Z,100.00
2023-05-09T23:41:29.420Z,100.00
2023-05-09T23:43:58.106Z,100.00
2023-05-09T23:46:25.005Z,100.00
2023-05-09T23:48:52.011Z,100.00
2023-05-09T23:51:20.711Z,100.00
2023-05-09T23:53:47.836Z,100.00
2023-05-09T23:56:15.569Z,100.00
2023-05-09T23:58:44.958Z,100.00
